Wednesday, January 17, 2018, 1:23 PM GMT
Back to Local

CWPS, Long Point Meteorological Aeronautical Presentation System

Location: , , Canada Lat: 42.567
Local Time: 1:23 PM GMT (13:23 GMT) Lon: -80.05
Time Zone: GMT Elev: 574 ft

Show me the last for .
Show Coded

Time T Td Feel RH Dir Speed Gust Alt SLP Vis Weather Sky Remarks
2018-01-17 12:00 12 10 -10 90 190° 30 - - 30.43 0 Peak wind: 35 mph (31 kts) from 180° at 08 min
2018-01-17 11:00 12 9 -10 87 190° 31 - - 30.44 0 Peak wind: 40 mph (35 kts) from 200° at 17 min
2018-01-17 10:00 12 9 -10 87 190° 31 - - 30.42 0 Peak wind: 39 mph (34 kts) from 180° at 35 min
2018-01-17 09:00 12 9 -10 86 180° 32 - - 30.43 0 Peak wind: 37 mph (33 kts) from 190° at 17 min
2018-01-17 08:00 12 8 -11 84 190° 32 38 - 30.43 0 Peak wind: 37 mph (33 kts) from 190° at 57 min
2018-01-17 07:00 12 8 -10 82 190° 31 - - 30.43 0 Peak wind: 37 mph (33 kts) from 190° at 28 min
2018-01-17 06:00 13 9 -8 85 200° 29 - - 30.43 0 Peak wind: 37 mph (33 kts) from 180° at 39 min
2018-01-17 05:00 13 9 -10 84 200° 29 36 - 30.43 0 Peak wind: 35 mph (31 kts) from 200° at 59 min
2018-01-17 04:00 15 9 -6 75 200° 28 33 - 30.43 0 Peak wind: 33 mph (29 kts) from 190° at 54 min
2018-01-17 03:00 14 10 -4 82 200° 23 - - 30.44 0 Peak wind: 29 mph (26 kts) from 200° at 30 min
2018-01-17 02:00 15 10 -6 82 200° 23 30 - 30.44 0 Peak wind: 29 mph (26 kts) from 200° at 53 min
2018-01-17 01:00 13 9 -5 80 210° 22 - - 30.44 0 Peak wind: 29 mph (26 kts) from 200° at 15 min
2018-01-17 00:00 14 8 -6 75 210° 18 26 - 30.43 0 Peak wind: 26 mph (23 kts) from 200° at 51 min
2018-01-16 23:00 15 7 -1 71 230° 16 - - 30.42 0 Peak wind: 20 mph (18 kts) from 220° at 21 min
2018-01-16 22:00 14 8 -2 79 220° 16 - - 30.41 0 Peak wind: 23 mph (20 kts) from 220° at 23 min
2018-01-16 21:00 14 9 -2 79 220° 17 - - 30.40 0 Peak wind: 23 mph (20 kts) from 210° at 23 min
2018-01-16 20:00 15 11 -3 82 220° 15 22 - 30.39 0 Peak wind: 23 mph (20 kts) from 220° at 40 min
2018-01-16 19:00 16 12 -1 83 210° 18 - - 30.38 0 Peak wind: 21 mph (19 kts) from 210° at 55 min
2018-01-16 18:00 16 12 2 83 220° 15 - - 30.38 0 Peak wind: 20 mph (18 kts) from 220° at 09 min
2018-01-16 17:00 17 13 1 84 220° 17 - - 30.40 0 Peak wind: 23 mph (20 kts) from 220° at 07 min
2018-01-16 16:00 18 14 2 85 210° 17 - - 30.42 0 Peak wind: 24 mph (21 kts) from 210° at 44 min
2018-01-16 15:00 20 15 10 80 230° 9 - - 30.40 0 Peak wind: 20 mph (18 kts) from 210° at 03 min
2018-01-16 14:00 21 18 5 87 200° 20 - - 30.40 0 Peak wind: 26 mph (23 kts) from 200° at 40 min

Support USWX by starting your Amazon purchase here.